sensor_id;sensor_type;location;lat;lon;timestamp;P1;durP1;ratioP1;P2;durP2;ratioP2
6251;SDS011;3159;52.414;9.784;2023-06-22T00:00:51;13.70;;;12.53;;
6251;SDS011;3159;52.414;9.784;2023-06-22T00:03:19;13.00;;;11.70;;
6251;SDS011;3159;52.414;9.784;2023-06-22T00:05:46;13.77;;;12.47;;
6251;SDS011;3159;52.414;9.784;2023-06-22T00:08:14;13.13;;;12.03;;
6251;SDS011;3159;52.414;9.784;2023-06-22T00:10:41;14.50;;;13.20;;
6251;SDS011;3159;52.414;9.784;2023-06-22T00:13:08;13.77;;;12.47;;
6251;SDS011;3159;52.414;9.784;2023-06-22T00:15:37;13.77;;;12.47;;
6251;SDS011;3159;52.414;9.784;2023-06-22T00:18:06;13.70;;;12.37;;
6251;SDS011;3159;52.414;9.784;2023-06-22T00:20:32;13.73;;;12.53;;
6251;SDS011;3159;52.414;9.784;2023-06-22T00:23:02;13.47;;;12.23;;
6251;SDS011;3159;52.414;9.784;2023-06-22T00:25:32;13.63;;;12.40;;
6251;SDS011;3159;52.414;9.784;2023-06-22T00:28:00;12.93;;;11.83;;
6251;SDS011;3159;52.414;9.784;2023-06-22T00:30:26;13.60;;;12.30;;
6251;SDS011;3159;52.414;9.784;2023-06-22T00:32:54;14.10;;;12.47;;
6251;SDS011;3159;52.414;9.784;2023-06-22T00:35:21;12.77;;;11.67;;
6251;SDS011;3159;52.414;9.784;2023-06-22T00:37:54;13.23;;;12.13;;
6251;SDS011;3159;52.414;9.784;2023-06-22T00:40:25;13.17;;;12.07;;
6251;SDS011;3159;52.414;9.784;2023-06-22T00:42:53;12.93;;;11.73;;
6251;SDS011;3159;52.414;9.784;2023-06-22T00:45:20;12.97;;;11.87;;
6251;SDS011;3159;52.414;9.784;2023-06-22T00:47:48;12.97;;;11.67;;
6251;SDS011;3159;52.414;9.784;2023-06-22T00:50:18;13.03;;;11.83;;
6251;SDS011;3159;52.414;9.784;2023-06-22T00:52:48;13.83;;;12.50;;
6251;SDS011;3159;52.414;9.784;2023-06-22T00:55:17;12.77;;;11.57;;
6251;SDS011;3159;52.414;9.784;2023-06-22T00:57:45;13.77;;;11.73;;
6251;SDS011;3159;52.414;9.784;2023-06-22T01:00:12;13.20;;;11.80;;
6251;SDS011;3159;52.414;9.784;2023-06-22T01:02:41;13.27;;;12.07;;
6251;SDS011;3159;52.414;9.784;2023-06-22T01:05:10;12.27;;;11.17;;
6251;SDS011;3159;52.414;9.784;2023-06-22T01:07:41;13.60;;;12.20;;
6251;SDS011;3159;52.414;9.784;2023-06-22T01:10:19;13.53;;;12.23;;
6251;SDS011;3159;52.414;9.784;2023-06-22T01:12:51;13.87;;;12.53;;
6251;SDS011;3159;52.414;9.784;2023-06-22T01:15:25;13.73;;;12.10;;
6251;SDS011;3159;52.414;9.784;2023-06-22T01:17:59;13.13;;;11.80;;
6251;SDS011;3159;52.414;9.784;2023-06-22T01:20:29;12.80;;;11.50;;
6251;SDS011;3159;52.414;9.784;2023-06-22T01:23:05;12.67;;;11.37;;
6251;SDS011;3159;52.414;9.784;2023-06-22T01:25:39;13.17;;;11.83;;
6251;SDS011;3159;52.414;9.784;2023-06-22T01:28:21;12.93;;;11.73;;
6251;SDS011;3159;52.414;9.784;2023-06-22T01:30:52;12.73;;;11.53;;
6251;SDS011;3159;52.414;9.784;2023-06-22T01:33:28;12.40;;;11.30;;
6251;SDS011;3159;52.414;9.784;2023-06-22T01:35:57;12.23;;;11.13;;
6251;SDS011;3159;52.414;9.784;2023-06-22T01:38:25;12.43;;;11.17;;
6251;SDS011;3159;52.414;9.784;2023-06-22T01:40:54;13.03;;;11.83;;
6251;SDS011;3159;52.414;9.784;2023-06-22T01:43:22;12.27;;;11.07;;
6251;SDS011;3159;52.414;9.784;2023-06-22T01:45:53;12.00;;;10.90;;
6251;SDS011;3159;52.414;9.784;2023-06-22T01:48:21;11.73;;;10.73;;
6251;SDS011;3159;52.414;9.784;2023-06-22T01:50:48;11.53;;;10.43;;
6251;SDS011;3159;52.414;9.784;2023-06-22T01:53:15;11.57;;;10.57;;
6251;SDS011;3159;52.414;9.784;2023-06-22T01:55:42;12.43;;;10.83;;
6251;SDS011;3159;52.414;9.784;2023-06-22T01:58:09;11.60;;;10.60;;
6251;SDS011;3159;52.414;9.784;2023-06-22T02:00:36;12.00;;;10.90;;
6251;SDS011;3159;52.414;9.784;2023-06-22T02:03:08;11.30;;;10.30;;
6251;SDS011;3159;52.414;9.784;2023-06-22T02:05:42;11.23;;;10.10;;
6251;SDS011;3159;52.414;9.784;2023-06-22T02:08:15;11.30;;;10.20;;
6251;SDS011;3159;52.414;9.784;2023-06-22T02:10:46;11.43;;;10.23;;
6251;SDS011;3159;52.414;9.784;2023-06-22T02:13:14;12.27;;;11.17;;
6251;SDS011;3159;52.414;9.784;2023-06-22T02:15:42;12.07;;;10.80;;
6251;SDS011;3159;52.414;9.784;2023-06-22T02:18:11;12.30;;;11.10;;
6251;SDS011;3159;52.414;9.784;2023-06-22T02:20:39;11.37;;;10.27;;
6251;SDS011;3159;52.414;9.784;2023-06-22T02:23:06;11.77;;;10.67;;
6251;SDS011;3159;52.414;9.784;2023-06-22T02:25:34;12.17;;;10.37;;
6251;SDS011;3159;52.414;9.784;2023-06-22T02:28:01;11.93;;;10.73;;
6251;SDS011;3159;52.414;9.784;2023-06-22T02:30:28;11.37;;;10.37;;
6251;SDS011;3159;52.414;9.784;2023-06-22T02:32:55;10.80;;;9.80;;
6251;SDS011;3159;52.414;9.784;2023-06-22T02:35:26;11.10;;;10.00;;
6251;SDS011;3159;52.414;9.784;2023-06-22T02:37:56;10.90;;;9.80;;
6251;SDS011;3159;52.414;9.784;2023-06-22T02:40:24;11.17;;;10.17;;
6251;SDS011;3159;52.414;9.784;2023-06-22T02:42:51;10.37;;;9.47;;
6251;SDS011;3159;52.414;9.784;2023-06-22T02:45:17;10.50;;;9.60;;
6251;SDS011;3159;52.414;9.784;2023-06-22T02:47:44;10.73;;;9.73;;
6251;SDS011;3159;52.414;9.784;2023-06-22T02:50:12;10.93;;;9.93;;
6251;SDS011;3159;52.414;9.784;2023-06-22T02:52:41;10.93;;;9.90;;
6251;SDS011;3159;52.414;9.784;2023-06-22T02:55:08;10.90;;;9.90;;
6251;SDS011;3159;52.414;9.784;2023-06-22T02:57:35;10.73;;;9.73;;
6251;SDS011;3159;52.414;9.784;2023-06-22T03:00:02;11.10;;;10.13;;
6251;SDS011;3159;52.414;9.784;2023-06-22T03:02:41;10.93;;;9.93;;
6251;SDS011;3159;52.414;9.784;2023-06-22T03:05:09;11.37;;;10.17;;
6251;SDS011;3159;52.414;9.784;2023-06-22T03:07:38;10.73;;;9.53;;
6251;SDS011;3159;52.414;9.784;2023-06-22T03:10:07;10.63;;;9.63;;
6251;SDS011;3159;52.414;9.784;2023-06-22T03:12:35;10.63;;;9.63;;
6251;SDS011;3159;52.414;9.784;2023-06-22T03:15:02;11.40;;;10.20;;
6251;SDS011;3159;52.414;9.784;2023-06-22T03:17:30;11.37;;;10.37;;
6251;SDS011;3159;52.414;9.784;2023-06-22T03:19:57;11.60;;;10.40;;
6251;SDS011;3159;52.414;9.784;2023-06-22T03:22:24;10.63;;;9.70;;
6251;SDS011;3159;52.414;9.784;2023-06-22T03:24:52;14.23;;;10.73;;
6251;SDS011;3159;52.414;9.784;2023-06-22T03:27:19;11.20;;;10.20;;
6251;SDS011;3159;52.414;9.784;2023-06-22T03:29:45;11.60;;;9.90;;
6251;SDS011;3159;52.414;9.784;2023-06-22T03:32:12;11.70;;;10.70;;
6251;SDS011;3159;52.414;9.784;2023-06-22T03:34:39;12.10;;;10.90;;
6251;SDS011;3159;52.414;9.784;2023-06-22T03:37:12;12.43;;;10.90;;
6251;SDS011;3159;52.414;9.784;2023-06-22T03:39:39;12.20;;;11.00;;
6251;SDS011;3159;52.414;9.784;2023-06-22T03:42:07;11.53;;;10.43;;
6251;SDS011;3159;52.414;9.784;2023-06-22T03:44:34;12.13;;;10.97;;
6251;SDS011;3159;52.414;9.784;2023-06-22T03:47:01;12.40;;;11.20;;
6251;SDS011;3159;52.414;9.784;2023-06-22T03:49:28;12.80;;;11.50;;
6251;SDS011;3159;52.414;9.784;2023-06-22T03:51:55;11.80;;;10.63;;
6251;SDS011;3159;52.414;9.784;2023-06-22T03:54:22;11.37;;;10.33;;
6251;SDS011;3159;52.414;9.784;2023-06-22T03:56:49;11.37;;;10.37;;
6251;SDS011;3159;52.414;9.784;2023-06-22T03:59:17;12.23;;;11.13;;
6251;SDS011;3159;52.414;9.784;2023-06-22T04:01:44;12.53;;;11.37;;
6251;SDS011;3159;52.414;9.784;2023-06-22T04:04:11;11.73;;;10.63;;
6251;SDS011;3159;52.414;9.784;2023-06-22T04:06:38;12.03;;;10.83;;
6251;SDS011;3159;52.414;9.784;2023-06-22T04:09:05;11.63;;;10.43;;
6251;SDS011;3159;52.414;9.784;2023-06-22T04:11:32;11.77;;;10.57;;
6251;SDS011;3159;52.414;9.784;2023-06-22T04:13:59;11.37;;;10.17;;
6251;SDS011;3159;52.414;9.784;2023-06-22T04:16:27;11.87;;;10.50;;
6251;SDS011;3159;52.414;9.784;2023-06-22T04:18:54;14.73;;;10.30;;
6251;SDS011;3159;52.414;9.784;2023-06-22T04:21:21;11.40;;;10.27;;
6251;SDS011;3159;52.414;9.784;2023-06-22T04:23:48;11.73;;;10.50;;
6251;SDS011;3159;52.414;9.784;2023-06-22T04:26:15;11.73;;;10.53;;
6251;SDS011;3159;52.414;9.784;2023-06-22T04:28:41;13.47;;;10.83;;
6251;SDS011;3159;52.414;9.784;2023-06-22T04:31:08;10.70;;;9.70;;
6251;SDS011;3159;52.414;9.784;2023-06-22T04:33:37;11.87;;;10.77;;
6251;SDS011;3159;52.414;9.784;2023-06-22T04:36:05;11.60;;;10.30;;
6251;SDS011;3159;52.414;9.784;2023-06-22T04:38:32;11.97;;;10.70;;
6251;SDS011;3159;52.414;9.784;2023-06-22T04:40:59;11.47;;;10.37;;
6251;SDS011;3159;52.414;9.784;2023-06-22T04:43:28;11.23;;;10.13;;
6251;SDS011;3159;52.414;9.784;2023-06-22T04:45:55;11.53;;;10.37;;
6251;SDS011;3159;52.414;9.784;2023-06-22T04:48:28;10.87;;;9.77;;
6251;SDS011;3159;52.414;9.784;2023-06-22T04:50:59;11.97;;;9.70;;
6251;SDS011;3159;52.414;9.784;2023-06-22T04:53:29;13.13;;;10.43;;
6251;SDS011;3159;52.414;9.784;2023-06-22T04:55:56;10.77;;;9.67;;
6251;SDS011;3159;52.414;9.784;2023-06-22T04:58:23;11.47;;;10.27;;
6251;SDS011;3159;52.414;9.784;2023-06-22T05:00:52;11.67;;;10.50;;
6251;SDS011;3159;52.414;9.784;2023-06-22T05:03:22;9.87;;;8.97;;
6251;SDS011;3159;52.414;9.784;2023-06-22T05:05:51;10.07;;;9.07;;
6251;SDS011;3159;52.414;9.784;2023-06-22T05:08:20;10.67;;;9.57;;
6251;SDS011;3159;52.414;9.784;2023-06-22T05:10:51;9.47;;;8.53;;
6251;SDS011;3159;52.414;9.784;2023-06-22T05:13:18;10.10;;;9.27;;
6251;SDS011;3159;52.414;9.784;2023-06-22T05:15:46;10.03;;;9.03;;
6251;SDS011;3159;52.414;9.784;2023-06-22T05:18:13;11.50;;;10.10;;
6251;SDS011;3159;52.414;9.784;2023-06-22T05:20:40;10.03;;;9.03;;
6251;SDS011;3159;52.414;9.784;2023-06-22T05:23:07;10.97;;;8.60;;
6251;SDS011;3159;52.414;9.784;2023-06-22T05:25:35;11.30;;;9.37;;
6251;SDS011;3159;52.414;9.784;2023-06-22T05:28:02;10.07;;;8.60;;
6251;SDS011;3159;52.414;9.784;2023-06-22T05:30:36;9.40;;;8.50;;
6251;SDS011;3159;52.414;9.784;2023-06-22T05:33:03;9.53;;;8.63;;
6251;SDS011;3159;52.414;9.784;2023-06-22T05:35:30;9.03;;;8.20;;
6251;SDS011;3159;52.414;9.784;2023-06-22T05:37:57;9.50;;;8.70;;
6251;SDS011;3159;52.414;9.784;2023-06-22T05:40:24;9.57;;;8.67;;
6251;SDS011;3159;52.414;9.784;2023-06-22T05:42:53;9.07;;;8.17;;
6251;SDS011;3159;52.414;9.784;2023-06-22T05:45:20;8.70;;;7.80;;
6251;SDS011;3159;52.414;9.784;2023-06-22T05:47:47;9.30;;;7.87;;
6251;SDS011;3159;52.414;9.784;2023-06-22T05:50:14;10.90;;;8.00;;
6251;SDS011;3159;52.414;9.784;2023-06-22T05:52:41;8.13;;;7.33;;
6251;SDS011;3159;52.414;9.784;2023-06-22T05:55:08;8.43;;;7.63;;
6251;SDS011;3159;52.414;9.784;2023-06-22T05:57:35;11.23;;;7.50;;
6251;SDS011;3159;52.414;9.784;2023-06-22T06:00:03;8.57;;;7.43;;
6251;SDS011;3159;52.414;9.784;2023-06-22T06:02:35;14.83;;;8.00;;
6251;SDS011;3159;52.414;9.784;2023-06-22T06:05:08;11.13;;;7.57;;
6251;SDS011;3159;52.414;9.784;2023-06-22T06:07:36;10.00;;;7.30;;
6251;SDS011;3159;52.414;9.784;2023-06-22T06:10:03;10.50;;;7.03;;
6251;SDS011;3159;52.414;9.784;2023-06-22T06:12:31;13.70;;;6.83;;
6251;SDS011;3159;52.414;9.784;2023-06-22T06:14:58;10.60;;;7.33;;
6251;SDS011;3159;52.414;9.784;2023-06-22T06:17:26;8.57;;;7.60;;
6251;SDS011;3159;52.414;9.784;2023-06-22T06:19:53;7.83;;;7.10;;
6251;SDS011;3159;52.414;9.784;2023-06-22T06:22:20;8.87;;;6.40;;
6251;SDS011;3159;52.414;9.784;2023-06-22T06:24:48;9.60;;;6.67;;
6251;SDS011;3159;52.414;9.784;2023-06-22T06:27:16;15.50;;;7.03;;
6251;SDS011;3159;52.414;9.784;2023-06-22T06:29:44;8.13;;;6.87;;
6251;SDS011;3159;52.414;9.784;2023-06-22T06:32:13;6.80;;;6.10;;
6251;SDS011;3159;52.414;9.784;2023-06-22T06:34:41;9.50;;;6.67;;
6251;SDS011;3159;52.414;9.784;2023-06-22T06:37:08;12.37;;;7.13;;
6251;SDS011;3159;52.414;9.784;2023-06-22T06:39:35;13.80;;;6.80;;
6251;SDS011;3159;52.414;9.784;2023-06-22T06:42:02;9.27;;;5.90;;
6251;SDS011;3159;52.414;9.784;2023-06-22T06:44:31;7.70;;;6.07;;
6251;SDS011;3159;52.414;9.784;2023-06-22T06:46:57;10.47;;;7.03;;
6251;SDS011;3159;52.414;9.784;2023-06-22T06:49:24;12.43;;;6.43;;
6251;SDS011;3159;52.414;9.784;2023-06-22T06:51:52;9.70;;;6.43;;
6251;SDS011;3159;52.414;9.784;2023-06-22T06:54:20;11.93;;;6.20;;
6251;SDS011;3159;52.414;9.784;2023-06-22T06:56:47;11.43;;;6.80;;
6251;SDS011;3159;52.414;9.784;2023-06-22T06:59:15;7.07;;;6.00;;
6251;SDS011;3159;52.414;9.784;2023-06-22T07:01:41;8.73;;;6.60;;
6251;SDS011;3159;52.414;9.784;2023-06-22T07:04:09;8.03;;;5.73;;
6251;SDS011;3159;52.414;9.784;2023-06-22T07:06:36;8.53;;;5.97;;
6251;SDS011;3159;52.414;9.784;2023-06-22T07:09:05;8.87;;;5.73;;
6251;SDS011;3159;52.414;9.784;2023-06-22T07:11:32;7.27;;;6.33;;
6251;SDS011;3159;52.414;9.784;2023-06-22T07:14:00;8.43;;;6.27;;
6251;SDS011;3159;52.414;9.784;2023-06-22T07:16:27;8.07;;;6.60;;
6251;SDS011;3159;52.414;9.784;2023-06-22T07:18:55;7.70;;;6.70;;
6251;SDS011;3159;52.414;9.784;2023-06-22T07:21:22;8.53;;;6.80;;
6251;SDS011;3159;52.414;9.784;2023-06-22T07:23:49;10.80;;;6.60;;
6251;SDS011;3159;52.414;9.784;2023-06-22T07:26:17;7.70;;;7.00;;
6251;SDS011;3159;52.414;9.784;2023-06-22T07:28:44;8.10;;;6.73;;
6251;SDS011;3159;52.414;9.784;2023-06-22T07:31:11;6.40;;;5.80;;
6251;SDS011;3159;52.414;9.784;2023-06-22T07:33:37;9.07;;;6.40;;
6251;SDS011;3159;52.414;9.784;2023-06-22T07:36:04;9.37;;;6.27;;
6251;SDS011;3159;52.414;9.784;2023-06-22T07:38:33;6.83;;;6.23;;
6251;SDS011;3159;52.414;9.784;2023-06-22T07:41:00;7.83;;;6.60;;
6251;SDS011;3159;52.414;9.784;2023-06-22T07:43:28;8.60;;;6.67;;
6251;SDS011;3159;52.414;9.784;2023-06-22T07:45:58;8.13;;;6.40;;
6251;SDS011;3159;52.414;9.784;2023-06-22T07:48:25;10.10;;;6.40;;
6251;SDS011;3159;52.414;9.784;2023-06-22T07:50:52;10.37;;;6.43;;
6251;SDS011;3159;52.414;9.784;2023-06-22T07:53:18;7.30;;;6.40;;
6251;SDS011;3159;52.414;9.784;2023-06-22T07:55:46;6.67;;;5.97;;
6251;SDS011;3159;52.414;9.784;2023-06-22T07:58:13;8.10;;;6.57;;
6251;SDS011;3159;52.414;9.784;2023-06-22T08:00:42;9.33;;;6.13;;
6251;SDS011;3159;52.414;9.784;2023-06-22T08:03:08;8.77;;;6.70;;
6251;SDS011;3159;52.414;9.784;2023-06-22T08:05:35;8.47;;;5.63;;
6251;SDS011;3159;52.414;9.784;2023-06-22T08:08:02;9.70;;;6.63;;
6251;SDS011;3159;52.414;9.784;2023-06-22T08:10:29;9.07;;;6.53;;
6251;SDS011;3159;52.414;9.784;2023-06-22T08:12:56;6.83;;;6.17;;
6251;SDS011;3159;52.414;9.784;2023-06-22T08:15:25;6.87;;;5.80;;
6251;SDS011;3159;52.414;9.784;2023-06-22T08:17:54;7.00;;;6.30;;
6251;SDS011;3159;52.414;9.784;2023-06-22T08:20:23;6.97;;;6.27;;
6251;SDS011;3159;52.414;9.784;2023-06-22T08:22:49;7.33;;;6.33;;
6251;SDS011;3159;52.414;9.784;2023-06-22T08:25:16;8.03;;;7.23;;
6251;SDS011;3159;52.414;9.784;2023-06-22T08:27:44;7.63;;;6.80;;
6251;SDS011;3159;52.414;9.784;2023-06-22T08:30:13;7.83;;;6.67;;
6251;SDS011;3159;52.414;9.784;2023-06-22T08:32:40;10.03;;;7.10;;
6251;SDS011;3159;52.414;9.784;2023-06-22T08:35:09;7.67;;;6.80;;
6251;SDS011;3159;52.414;9.784;2023-06-22T08:37:36;9.73;;;6.90;;
6251;SDS011;3159;52.414;9.784;2023-06-22T08:40:04;9.30;;;7.20;;
6251;SDS011;3159;52.414;9.784;2023-06-22T08:42:34;9.13;;;7.77;;
6251;SDS011;3159;52.414;9.784;2023-06-22T08:45:01;10.27;;;7.87;;
6251;SDS011;3159;52.414;9.784;2023-06-22T08:47:28;8.93;;;7.60;;
6251;SDS011;3159;52.414;9.784;2023-06-22T08:49:55;8.37;;;7.50;;
6251;SDS011;3159;52.414;9.784;2023-06-22T08:52:23;9.67;;;8.67;;
6251;SDS011;3159;52.414;9.784;2023-06-22T08:54:51;12.63;;;8.43;;
6251;SDS011;3159;52.414;9.784;2023-06-22T08:57:18;11.13;;;9.40;;
6251;SDS011;3159;52.414;9.784;2023-06-22T08:59:45;11.47;;;9.00;;
6251;SDS011;3159;52.414;9.784;2023-06-22T09:02:12;10.67;;;9.23;;
6251;SDS011;3159;52.414;9.784;2023-06-22T09:04:39;9.87;;;8.83;;
6251;SDS011;3159;52.414;9.784;2023-06-22T09:07:06;10.67;;;9.57;;
6251;SDS011;3159;52.414;9.784;2023-06-22T09:09:34;10.30;;;8.70;;
6251;SDS011;3159;52.414;9.784;2023-06-22T09:12:01;10.70;;;9.13;;
6251;SDS011;3159;52.414;9.784;2023-06-22T09:14:28;10.53;;;9.47;;
6251;SDS011;3159;52.414;9.784;2023-06-22T09:16:55;13.50;;;10.60;;
6251;SDS011;3159;52.414;9.784;2023-06-22T09:19:22;10.77;;;9.67;;
6251;SDS011;3159;52.414;9.784;2023-06-22T09:21:49;11.77;;;9.67;;
6251;SDS011;3159;52.414;9.784;2023-06-22T09:24:17;10.87;;;9.77;;
6251;SDS011;3159;52.414;9.784;2023-06-22T09:26:45;12.10;;;10.83;;
6251;SDS011;3159;52.414;9.784;2023-06-22T09:29:12;12.53;;;10.90;;
6251;SDS011;3159;52.414;9.784;2023-06-22T09:31:39;15.40;;;11.30;;
6251;SDS011;3159;52.414;9.784;2023-06-22T09:34:06;12.50;;;10.73;;
6251;SDS011;3159;52.414;9.784;2023-06-22T09:36:32;12.80;;;10.87;;
6251;SDS011;3159;52.414;9.784;2023-06-22T09:39:00;12.97;;;11.53;;
6251;SDS011;3159;52.414;9.784;2023-06-22T09:41:31;13.07;;;11.70;;
6251;SDS011;3159;52.414;9.784;2023-06-22T09:43:59;14.93;;;10.30;;
6251;SDS011;3159;52.414;9.784;2023-06-22T09:46:26;16.03;;;10.60;;
6251;SDS011;3159;52.414;9.784;2023-06-22T09:48:54;12.37;;;11.17;;
6251;SDS011;3159;52.414;9.784;2023-06-22T09:51:20;15.33;;;12.03;;
6251;SDS011;3159;52.414;9.784;2023-06-22T09:53:48;14.40;;;12.90;;
6251;SDS011;3159;52.414;9.784;2023-06-22T09:56:15;15.60;;;12.43;;
6251;SDS011;3159;52.414;9.784;2023-06-22T09:58:43;16.63;;;13.97;;
6251;SDS011;3159;52.414;9.784;2023-06-22T10:01:12;16.67;;;12.70;;
6251;SDS011;3159;52.414;9.784;2023-06-22T10:03:40;15.77;;;12.80;;
6251;SDS011;3159;52.414;9.784;2023-06-22T10:06:07;15.33;;;12.87;;
6251;SDS011;3159;52.414;9.784;2023-06-22T10:08:34;17.77;;;15.10;;
6251;SDS011;3159;52.414;9.784;2023-06-22T10:11:01;17.97;;;14.63;;
6251;SDS011;3159;52.414;9.784;2023-06-22T10:13:28;18.17;;;14.23;;
6251;SDS011;3159;52.414;9.784;2023-06-22T10:15:55;16.60;;;14.30;;
6251;SDS011;3159;52.414;9.784;2023-06-22T10:18:23;15.80;;;13.70;;
6251;SDS011;3159;52.414;9.784;2023-06-22T10:20:50;17.33;;;15.53;;
6251;SDS011;3159;52.414;9.784;2023-06-22T10:23:17;14.67;;;13.17;;
6251;SDS011;3159;52.414;9.784;2023-06-22T10:25:45;16.20;;;13.53;;
6251;SDS011;3159;52.414;9.784;2023-06-22T10:28:12;17.37;;;13.50;;
6251;SDS011;3159;52.414;9.784;2023-06-22T10:30:39;17.27;;;14.50;;
6251;SDS011;3159;52.414;9.784;2023-06-22T10:33:07;16.07;;;14.20;;
6251;SDS011;3159;52.414;9.784;2023-06-22T10:35:35;14.97;;;13.50;;
6251;SDS011;3159;52.414;9.784;2023-06-22T10:38:03;14.53;;;13.03;;
6251;SDS011;3159;52.414;9.784;2023-06-22T10:40:30;17.27;;;14.47;;
6251;SDS011;3159;52.414;9.784;2023-06-22T10:42:58;16.63;;;13.37;;
6251;SDS011;3159;52.414;9.784;2023-06-22T10:45:24;15.40;;;13.87;;
6251;SDS011;3159;52.414;9.784;2023-06-22T10:47:52;13.83;;;12.33;;
6251;SDS011;3159;52.414;9.784;2023-06-22T10:50:19;18.37;;;12.77;;
6251;SDS011;3159;52.414;9.784;2023-06-22T10:52:47;12.93;;;10.97;;
6251;SDS011;3159;52.414;9.784;2023-06-22T10:55:14;16.17;;;11.70;;
6251;SDS011;3159;52.414;9.784;2023-06-22T10:57:41;17.47;;;15.67;;
6251;SDS011;3159;52.414;9.784;2023-06-22T11:00:09;16.77;;;14.60;;
6251;SDS011;3159;52.414;9.784;2023-06-22T11:02:37;16.17;;;14.47;;
6251;SDS011;3159;52.414;9.784;2023-06-22T11:05:04;15.40;;;13.17;;
6251;SDS011;3159;52.414;9.784;2023-06-22T11:07:32;14.00;;;12.57;;
6251;SDS011;3159;52.414;9.784;2023-06-22T11:10:00;15.43;;;13.93;;
6251;SDS011;3159;52.414;9.784;2023-06-22T11:12:27;14.37;;;12.97;;
6251;SDS011;3159;52.414;9.784;2023-06-22T11:14:54;15.30;;;12.97;;
6251;SDS011;3159;52.414;9.784;2023-06-22T11:17:22;15.53;;;11.93;;
6251;SDS011;3159;52.414;9.784;2023-06-22T11:19:50;11.70;;;10.50;;
6251;SDS011;3159;52.414;9.784;2023-06-22T11:22:17;13.40;;;11.60;;
6251;SDS011;3159;52.414;9.784;2023-06-22T11:24:44;12.30;;;11.20;;
6251;SDS011;3159;52.414;9.784;2023-06-22T11:27:12;18.20;;;12.93;;
6251;SDS011;3159;52.414;9.784;2023-06-22T11:29:39;13.93;;;12.37;;
6251;SDS011;3159;52.414;9.784;2023-06-22T11:32:06;14.93;;;12.23;;
6251;SDS011;3159;52.414;9.784;2023-06-22T11:34:33;15.23;;;12.20;;
6251;SDS011;3159;52.414;9.784;2023-06-22T11:37:00;15.30;;;12.33;;
6251;SDS011;3159;52.414;9.784;2023-06-22T11:39:27;15.50;;;14.00;;
6251;SDS011;3159;52.414;9.784;2023-06-22T11:41:54;13.47;;;12.17;;
6251;SDS011;3159;52.414;9.784;2023-06-22T11:44:22;17.03;;;11.93;;
6251;SDS011;3159;52.414;9.784;2023-06-22T11:46:49;14.77;;;12.47;;
6251;SDS011;3159;52.414;9.784;2023-06-22T11:49:16;15.17;;;13.13;;
6251;SDS011;3159;52.414;9.784;2023-06-22T11:51:43;14.83;;;12.83;;
6251;SDS011;3159;52.414;9.784;2023-06-22T11:54:10;13.87;;;12.57;;
6251;SDS011;3159;52.414;9.784;2023-06-22T11:56:36;16.10;;;12.40;;
6251;SDS011;3159;52.414;9.784;2023-06-22T11:59:03;13.77;;;12.37;;
6251;SDS011;3159;52.414;9.784;2023-06-22T12:01:31;14.13;;;11.63;;
6251;SDS011;3159;52.414;9.784;2023-06-22T12:03:59;12.63;;;11.07;;
6251;SDS011;3159;52.414;9.784;2023-06-22T12:06:26;14.70;;;11.87;;
6251;SDS011;3159;52.414;9.784;2023-06-22T12:08:53;14.53;;;12.00;;
6251;SDS011;3159;52.414;9.784;2023-06-22T12:11:19;14.20;;;11.80;;
6251;SDS011;3159;52.414;9.784;2023-06-22T12:13:46;13.70;;;11.80;;
6251;SDS011;3159;52.414;9.784;2023-06-22T12:16:13;14.00;;;12.63;;
6251;SDS011;3159;52.414;9.784;2023-06-22T12:18:41;11.57;;;10.40;;
6251;SDS011;3159;52.414;9.784;2023-06-22T12:21:08;12.60;;;11.27;;
6251;SDS011;3159;52.414;9.784;2023-06-22T12:23:35;13.73;;;12.30;;
6251;SDS011;3159;52.414;9.784;2023-06-22T12:26:02;12.30;;;10.70;;
6251;SDS011;3159;52.414;9.784;2023-06-22T12:28:29;11.57;;;10.47;;
6251;SDS011;3159;52.414;9.784;2023-06-22T12:30:55;14.00;;;11.63;;
6251;SDS011;3159;52.414;9.784;2023-06-22T12:33:22;12.13;;;10.93;;
6251;SDS011;3159;52.414;9.784;2023-06-22T12:35:50;12.13;;;11.00;;
6251;SDS011;3159;52.414;9.784;2023-06-22T12:38:17;12.30;;;11.00;;
6251;SDS011;3159;52.414;9.784;2023-06-22T12:40:44;12.37;;;11.17;;
6251;SDS011;3159;52.414;9.784;2023-06-22T12:43:12;15.20;;;11.60;;
6251;SDS011;3159;52.414;9.784;2023-06-22T12:45:39;13.87;;;11.43;;
6251;SDS011;3159;52.414;9.784;2023-06-22T12:48:06;14.20;;;10.53;;
6251;SDS011;3159;52.414;9.784;2023-06-22T12:50:33;12.03;;;10.70;;
6251;SDS011;3159;52.414;9.784;2023-06-22T12:53:01;12.00;;;10.87;;
6251;SDS011;3159;52.414;9.784;2023-06-22T12:55:29;12.57;;;10.83;;
6251;SDS011;3159;52.414;9.784;2023-06-22T12:57:56;12.23;;;10.60;;
6251;SDS011;3159;52.414;9.784;2023-06-22T13:00:23;12.67;;;10.80;;
6251;SDS011;3159;52.414;9.784;2023-06-22T13:02:49;12.07;;;10.97;;
6251;SDS011;3159;52.414;9.784;2023-06-22T13:05:16;12.40;;;11.33;;
6251;SDS011;3159;52.414;9.784;2023-06-22T13:07:43;11.63;;;10.60;;
6251;SDS011;3159;52.414;9.784;2023-06-22T13:10:12;12.60;;;10.73;;
6251;SDS011;3159;52.414;9.784;2023-06-22T13:12:39;11.43;;;10.27;;
6251;SDS011;3159;52.414;9.784;2023-06-22T13:15:06;11.63;;;10.50;;
6251;SDS011;3159;52.414;9.784;2023-06-22T13:17:33;11.97;;;9.67;;
6251;SDS011;3159;52.414;9.784;2023-06-22T13:20:00;10.97;;;9.50;;
6251;SDS011;3159;52.414;9.784;2023-06-22T13:22:29;13.17;;;10.33;;
6251;SDS011;3159;52.414;9.784;2023-06-22T13:24:57;12.53;;;11.20;;
6251;SDS011;3159;52.414;9.784;2023-06-22T13:27:26;12.80;;;10.77;;
6251;SDS011;3159;52.414;9.784;2023-06-22T13:29:52;11.97;;;10.87;;
6251;SDS011;3159;52.414;9.784;2023-06-22T13:32:19;12.83;;;11.17;;
6251;SDS011;3159;52.414;9.784;2023-06-22T13:34:46;13.40;;;12.07;;
6251;SDS011;3159;52.414;9.784;2023-06-22T13:37:13;13.80;;;12.50;;
6251;SDS011;3159;52.414;9.784;2023-06-22T13:39:40;13.03;;;11.67;;
6251;SDS011;3159;52.414;9.784;2023-06-22T13:42:07;14.73;;;12.50;;
6251;SDS011;3159;52.414;9.784;2023-06-22T13:44:36;15.07;;;12.83;;
6251;SDS011;3159;52.414;9.784;2023-06-22T13:47:03;12.97;;;11.77;;
6251;SDS011;3159;52.414;9.784;2023-06-22T13:49:30;15.80;;;13.97;;
6251;SDS011;3159;52.414;9.784;2023-06-22T13:51:57;13.73;;;12.43;;
6251;SDS011;3159;52.414;9.784;2023-06-22T13:54:24;13.37;;;12.07;;
6251;SDS011;3159;52.414;9.784;2023-06-22T13:56:51;12.87;;;11.77;;
6251;SDS011;3159;52.414;9.784;2023-06-22T13:59:18;13.70;;;12.10;;
6251;SDS011;3159;52.414;9.784;2023-06-22T14:01:47;15.57;;;12.60;;
6251;SDS011;3159;52.414;9.784;2023-06-22T14:04:14;13.63;;;12.43;;
6251;SDS011;3159;52.414;9.784;2023-06-22T14:06:41;13.50;;;12.30;;
6251;SDS011;3159;52.414;9.784;2023-06-22T14:09:07;13.73;;;12.33;;
6251;SDS011;3159;52.414;9.784;2023-06-22T14:11:34;13.43;;;12.23;;
6251;SDS011;3159;52.414;9.784;2023-06-22T14:14:01;14.10;;;11.90;;
6251;SDS011;3159;52.414;9.784;2023-06-22T14:16:28;14.87;;;12.27;;
6251;SDS011;3159;52.414;9.784;2023-06-22T14:18:56;14.17;;;12.57;;
6251;SDS011;3159;52.414;9.784;2023-06-22T14:21:23;13.57;;;12.33;;
6251;SDS011;3159;52.414;9.784;2023-06-22T14:23:50;14.63;;;13.00;;
6251;SDS011;3159;52.414;9.784;2023-06-22T14:26:17;14.43;;;13.03;;
6251;SDS011;3159;52.414;9.784;2023-06-22T14:28:44;14.03;;;12.57;;
6251;SDS011;3159;52.414;9.784;2023-06-22T14:31:13;14.13;;;12.83;;
6251;SDS011;3159;52.414;9.784;2023-06-22T14:33:40;13.73;;;12.43;;
6251;SDS011;3159;52.414;9.784;2023-06-22T14:36:15;14.43;;;13.03;;
6251;SDS011;3159;52.414;9.784;2023-06-22T14:38:43;13.87;;;12.43;;
6251;SDS011;3159;52.414;9.784;2023-06-22T14:41:11;14.20;;;12.83;;
6251;SDS011;3159;52.414;9.784;2023-06-22T14:43:43;14.63;;;13.23;;
6251;SDS011;3159;52.414;9.784;2023-06-22T14:46:10;14.80;;;13.17;;
6251;SDS011;3159;52.414;9.784;2023-06-22T14:48:37;13.33;;;12.13;;
6251;SDS011;3159;52.414;9.784;2023-06-22T14:51:04;12.80;;;11.60;;
6251;SDS011;3159;52.414;9.784;2023-06-22T14:53:32;14.17;;;12.77;;
6251;SDS011;3159;52.414;9.784;2023-06-22T14:55:59;13.77;;;12.37;;
6251;SDS011;3159;52.414;9.784;2023-06-22T14:58:27;13.07;;;11.97;;